Doagh, United Kingdom
Current Conditions -  °F | °C
As of 10:50 PM on Monday 22 Dec 2014 (Local Time) from EGAA Reporting Station
Light Rain Light Rain  
Wind Chill: 44°   Ceiling: 1300
Heat Index: 48°   Visibility: 5mi
Dew Point: 48°   Wind: 9mph
Humidity: 100%   Direction: 230°SW
Pressure: 29.74"   Gusts: NA
Location:  54.75°N, 6.08°W
Report Text: EGAA 222250Z 23008KT 8000 -RA SCT002 BKN013 09/09 Q1007
Loading
Personal Weather Stations






























Interactive Weather Map New forecast layout! Learn more

10-Day Weather Forecast

Advertisements
Track Severe Weather on mobile